Time;durP1;ratioP1;P1;durP2;ratioP2;P2;SDS_P1;SDS_P2;PMS_P1;PMS_P2;Temp;Humidity;BMP_temperature;BMP_pressure;BME280_temperature;BME280_humidity;BME280_pressure;Samples;Min_cycle;Max_cycle;Signal;HPM_P1;HPM_P2
2023/10/08 00:02:14;;;;;;;3.53;0.90;;;;;;;12.40;100.00;102754.41;5000117;28;20209;-74
2023/10/08 00:04:40;;;;;;;2.40;0.63;;;;;;;12.06;100.00;102775.97;4998746;28;20536;-75
2023/10/08 00:07:08;;;;;;;2.70;0.80;;;;;;;13.66;100.00;102977.97;4991013;28;20929;-74
2023/10/08 00:09:36;;;;;;;3.03;0.73;;;;;;;13.17;100.00;102945.50;5002124;28;20448;-74
2023/10/08 00:12:04;;;;;;;2.60;0.70;;;;;;;13.47;100.00;102957.53;4999417;28;20467;-75
2023/10/08 00:14:32;;;;;;;2.70;0.70;;;;;;;13.42;100.00;102976.03;4998453;28;20436;-75
2023/10/08 00:16:58;;;;;;;3.57;0.90;;;;;;;13.72;100.00;102996.16;5000554;28;20468;-74
2023/10/08 00:19:24;;;;;;;3.90;0.87;;;;;;;13.36;100.00;102991.03;5000074;28;20435;-75
2023/10/08 00:21:52;;;;;;;2.83;0.80;;;;;;;13.55;100.00;102993.44;4992064;28;20971;-74
2023/10/08 00:24:18;;;;;;;7.40;1.10;;;;;;;13.01;100.00;102975.91;4981167;28;20440;-75
2023/10/08 00:26:44;;;;;;;4.03;0.90;;;;;;;13.08;100.00;102977.78;4991713;28;20530;-74
2023/10/08 00:29:16;;;;;;;4.03;0.93;;;;;;;13.57;100.00;103020.25;5001182;28;20224;-75
2023/10/08 00:31:45;;;;;;;3.83;1.10;;;;;;;13.51;100.00;103018.19;4999943;28;20188;-74
2023/10/08 00:34:14;;;;;;;4.13;0.80;;;;;;;13.53;100.00;103021.56;5000260;28;21076;-75
2023/10/08 00:36:47;;;;;;;3.20;1.00;;;;;;;13.33;100.00;103012.91;4999427;28;20538;-74
2023/10/08 00:39:14;;;;;;;4.10;0.70;;;;;;;13.40;100.00;103029.31;4990969;28;20988;-74
2023/10/08 00:41:44;;;;;;;4.17;1.17;;;;;;;13.32;100.00;103004.00;4999370;28;20472;-74
2023/10/08 00:44:17;;;;;;;2.93;0.70;;;;;;;13.46;100.00;102999.00;4998599;28;20497;-74
2023/10/08 00:46:49;;;;;;;3.17;0.80;;;;;;;13.50;100.00;103009.25;4996615;28;20827;-74
2023/10/08 00:49:35;;;;;;;4.40;0.97;;;;;;;13.48;100.00;103019.38;5000524;28;20476;-75
2023/10/08 00:52:26;;;;;;;4.50;0.80;;;;;;;13.33;100.00;103015.63;4999159;28;20456;-74
2023/10/08 00:57:34;;;;;;;3.20;1.00;;;;;;;13.04;100.00;102967.50;5000090;28;20467;-74
2023/10/08 00:59:59;;;;;;;3.97;1.20;;;;;;;13.12;100.00;102981.00;4999312;28;20968;-74
2023/10/08 01:02:28;;;;;;;4.30;1.37;;;;;;;13.25;100.00;103000.28;4997963;28;20554;-74
2023/10/08 01:04:55;;;;;;;3.60;0.90;;;;;;;12.52;100.00;102900.31;4998534;28;20193;-74
2023/10/08 01:07:21;;;;;;;4.60;1.13;;;;;;;13.34;100.00;102998.47;5002640;28;20439;-74
2023/10/08 01:09:51;;;;;;;3.70;1.17;;;;;;;12.68;100.00;102868.06;4989172;28;20619;-74
2023/10/08 01:15:25;;;;;;;4.20;0.97;;;;;;;13.20;100.00;102939.78;5001221;28;20565;-74
2023/10/08 01:18:02;;;;;;;5.30;1.20;;;;;;;12.80;100.00;102880.22;4997292;28;20476;-74
2023/10/08 01:20:34;;;;;;;3.47;1.10;;;;;;;13.28;100.00;102966.78;4999349;28;20971;-74
2023/10/08 01:23:03;;;;;;;10.43;1.37;;;;;;;13.23;100.00;102950.22;4991957;28;20468;-75
2023/10/08 01:25:29;;;;;;;5.40;1.17;;;;;;;13.05;100.00;102926.09;4999442;28;20452;-74
2023/10/08 01:28:01;;;;;;;3.87;0.80;;;;;;;12.94;100.00;102905.69;4999843;28;20439;-74
2023/10/08 01:30:34;;;;;;;4.20;1.10;;;;;;;13.30;100.00;102944.00;5000666;28;21024;-75
2023/10/08 01:33:02;;;;;;;3.30;1.00;;;;;;;13.48;100.00;102967.28;5002292;28;20456;-74
2023/10/08 01:35:28;;;;;;;3.80;0.90;;;;;;;13.29;100.00;102928.84;4999476;28;20448;-74
2023/10/08 01:37:56;;;;;;;4.27;0.90;;;;;;;13.01;100.00;102920.16;5001362;28;20440;-75
2023/10/08 01:40:21;;;;;;;5.33;1.20;;;;;;;13.38;100.00;102966.63;5001145;28;20208;-74
2023/10/08 01:42:51;;;;;;;4.00;0.90;;;;;;;13.53;100.00;102978.44;4997711;28;20472;-74
2023/10/08 01:45:18;;;;;;;5.07;1.23;;;;;;;13.15;100.00;102966.34;4991453;28;20307;-75
2023/10/08 01:47:44;;;;;;;4.03;1.00;;;;;;;12.76;100.00;102889.66;5001304;28;20551;-74
2023/10/08 01:50:21;;;;;;;4.80;1.00;;;;;;;13.42;100.00;102976.88;4999409;28;20448;-74
2023/10/08 01:52:51;;;;;;;4.67;1.10;;;;;;;13.26;100.00;102960.69;5003145;28;20196;-74
2023/10/08 01:55:19;;;;;;;5.30;1.13;;;;;;;13.44;100.00;102971.34;4996784;28;20445;-74
2023/10/08 01:57:51;;;;;;;3.27;0.97;;;;;;;13.00;100.00;102877.25;4997292;28;20505;-74
2023/10/08 02:00:19;;;;;;;4.00;0.90;;;;;;;13.31;100.00;102929.53;5000755;28;20481;-74
2023/10/08 02:02:53;;;;;;;5.63;1.07;;;;;;;13.28;100.00;102923.66;4995743;28;20479;-74
2023/10/08 02:05:20;;;;;;;3.70;1.10;;;;;;;13.30;100.00;102991.69;4997555;28;20436;-74
2023/10/08 02:07:46;;;;;;;4.97;0.90;;;;;;;13.36;100.00;102998.28;4997443;28;20448;-74
2023/10/08 02:10:14;;;;;;;4.33;1.00;;;;;;;13.43;100.00;103000.16;5000780;28;20503;-74
2023/10/08 02:12:42;;;;;;;4.60;1.00;;;;;;;12.80;100.00;102885.59;4997888;28;20212;-77
2023/10/08 02:15:08;;;;;;;6.37;1.20;;;;;;;13.29;100.00;102968.44;4989864;28;20442;-76
2023/10/08 02:17:34;;;;;;;3.30;1.00;;;;;;;13.47;100.00;102971.84;4982624;28;20445;-76
2023/10/08 02:20:04;;;;;;;4.50;0.90;;;;;;;13.09;100.00;102900.50;5001772;28;21070;-77
2023/10/08 02:22:29;;;;;;;4.70;1.20;;;;;;;13.45;100.00;102979.28;4998422;28;20464;-76
2023/10/08 02:25:01;;;;;;;3.30;0.80;;;;;;;13.05;100.00;102926.94;4998829;28;20475;-76
2023/10/08 02:27:27;;;;;;;5.07;1.10;;;;;;;13.07;100.00;102975.25;4999965;28;20185;-74
2023/10/08 02:29:52;;;;;;;7.00;1.00;;;;;;;12.42;100.00;102874.34;5000607;28;21207;-76
2023/10/08 02:32:18;;;;;;;5.33;1.13;;;;;;;13.04;100.00;102965.63;4983804;28;20550;-76
2023/10/08 02:34:44;;;;;;;5.30;1.50;;;;;;;12.70;100.00;102984.53;4997250;28;20263;-76
2023/10/08 02:37:10;;;;;;;3.63;0.87;;;;;;;12.78;100.00;103007.94;4989832;28;20531;-76
2023/10/08 02:39:40;;;;;;;7.40;1.13;;;;;;;12.01;100.00;102926.25;4981368;28;20843;-76
2023/10/08 02:42:10;;;;;;;7.30;1.20;;;;;;;12.69;100.00;103014.31;4981433;28;20492;-76
2023/10/08 02:44:41;;;;;;;5.43;1.20;;;;;;;12.26;100.00;102965.75;4995303;28;20470;-76
2023/10/08 02:47:16;;;;;;;5.77;1.20;;;;;;;12.04;100.00;102929.47;5003373;28;20468;-76
2023/10/08 02:49:42;;;;;;;3.80;1.00;;;;;;;12.32;100.00;102964.28;5001353;28;20496;-76
2023/10/08 02:52:11;;;;;;;6.20;1.20;;;;;;;13.20;100.00;103051.09;4979672;28;21509;-77
2023/10/08 02:54:37;;;;;;;4.27;1.03;;;;;;;13.17;100.00;103051.41;4996070;28;20696;-77
2023/10/08 02:57:04;;;;;;;4.67;1.20;;;;;;;12.48;100.00;102974.31;5000571;28;20543;-77
2023/10/08 02:59:42;;;;;;;4.03;1.03;;;;;;;13.01;100.00;103083.66;4999893;28;20440;-76
2023/10/08 03:02:14;;;;;;;4.33;1.07;;;;;;;13.14;100.00;103059.00;4997023;28;20470;-77
2023/10/08 03:04:45;;;;;;;4.60;1.40;;;;;;;13.09;100.00;103072.94;4981122;28;20463;-76
2023/10/08 03:07:20;;;;;;;4.33;1.10;;;;;;;12.20;100.00;102928.72;4997171;28;20929;-77
2023/10/08 03:09:49;;;;;;;5.10;1.40;;;;;;;13.03;100.00;103052.03;4997498;28;20490;-76
2023/10/08 03:12:15;;;;;;;3.60;1.10;;;;;;;13.12;100.00;103061.84;4995993;28;20460;-77
2023/10/08 03:15:01;;;;;;;4.63;1.07;;;;;;;12.95;100.00;103035.81;4998003;28;20478;-76
2023/10/08 03:17:28;;;;;;;3.93;1.40;;;;;;;13.20;100.00;103071.81;4997010;28;20196;-76
2023/10/08 03:20:01;;;;;;;3.20;1.10;;;;;;;13.10;100.00;103071.91;4996337;28;20435;-77
2023/10/08 03:22:33;;;;;;;4.30;1.10;;;;;;;12.50;100.00;103008.16;4996521;28;20507;-76
2023/10/08 03:25:09;;;;;;;6.40;1.17;;;;;;;12.96;100.00;103062.59;4996443;28;20449;-76
2023/10/08 03:27:41;;;;;;;4.70;1.10;;;;;;;12.98;100.00;103062.44;4997405;28;20617;-76
2023/10/08 03:30:13;;;;;;;4.23;1.03;;;;;;;13.30;100.00;103107.59;4997336;28;20451;-77
2023/10/08 03:32:41;;;;;;;3.60;0.90;;;;;;;13.15;100.00;103095.69;4998400;28;20455;-76
2023/10/08 03:35:10;;;;;;;2.93;0.80;;;;;;;12.55;100.00;103043.50;4997297;28;20443;-77
2023/10/08 03:37:41;;;;;;;5.43;1.10;;;;;;;12.81;100.00;103042.63;5000271;28;21063;-77
2023/10/08 03:40:24;;;;;;;3.80;1.30;;;;;;;13.30;100.00;103118.38;4998449;28;21341;-76
2023/10/08 03:42:49;;;;;;;6.73;1.50;;;;;;;13.13;100.00;103093.16;4996606;28;20534;-77
2023/10/08 03:45:22;;;;;;;5.20;1.10;;;;;;;13.08;100.00;103125.13;4996332;28;20448;-77
2023/10/08 03:48:03;;;;;;;4.57;1.23;;;;;;;12.78;100.00;103026.81;4999907;28;20717;-77
2023/10/08 03:50:40;;;;;;;5.00;1.10;;;;;;;12.96;100.00;103080.59;4994581;28;20801;-76
2023/10/08 03:53:11;;;;;;;3.00;0.90;;;;;;;13.28;100.00;103121.22;4994177;28;21429;-77
2023/10/08 03:55:40;;;;;;;3.50;1.17;;;;;;;13.11;100.00;103073.63;4998060;28;20444;-77
2023/10/08 03:58:13;;;;;;;5.00;1.10;;;;;;;13.15;100.00;103149.59;4996679;28;20487;-76
2023/10/08 04:00:42;;;;;;;5.33;1.30;;;;;;;12.92;100.00;103125.03;4997792;28;20439;-77
2023/10/08 04:03:11;;;;;;;4.60;1.27;;;;;;;12.69;100.00;103046.63;4997492;28;20465;-75
2023/10/08 04:06:14;;;;;;;3.30;0.70;;;;;;;12.29;100.00;103040.78;4996720;28;20440;-76
2023/10/08 04:08:42;;;;;;;4.03;1.00;;;;;;;12.82;100.00;103090.13;4995980;28;20527;-77
2023/10/08 04:11:32;;;;;;;4.93;1.30;;;;;;;13.12;100.00;103164.22;4997127;28;20433;-76
2023/10/08 04:14:00;;;;;;;4.80;1.30;;;;;;;13.01;100.00;103129.47;4995329;28;20440;-76
2023/10/08 04:16:27;;;;;;;9.10;1.10;;;;;;;12.89;100.00;103097.41;4997641;28;20491;-76
2023/10/08 04:18:55;;;;;;;3.63;1.00;;;;;;;12.57;100.00;103059.50;4978209;28;20457;-76
2023/10/08 04:21:22;;;;;;;3.70;1.20;;;;;;;12.51;100.00;103050.19;4995875;28;20451;-76
2023/10/08 04:23:51;;;;;;;6.60;1.80;;;;;;;13.21;100.00;103182.13;4995443;28;20607;-76
2023/10/08 04:26:18;;;;;;;5.03;1.10;;;;;;;13.35;100.00;103196.91;4998345;28;20448;-77
2023/10/08 04:28:43;;;;;;;5.47;1.27;;;;;;;13.14;100.00;103164.91;4996983;28;20522;-76
2023/10/08 04:31:15;;;;;;;5.50;1.40;;;;;;;12.91;100.00;103123.34;4995004;28;20856;-76
2023/10/08 04:33:45;;;;;;;6.20;1.00;;;;;;;12.94;100.00;103140.03;4997743;28;20217;-76
2023/10/08 04:36:17;;;;;;;6.97;1.50;;;;;;;13.41;100.00;103215.13;4995127;28;20436;-76
2023/10/08 04:38:45;;;;;;;6.67;1.57;;;;;;;13.27;100.00;103186.06;4996275;28;20455;-76
2023/10/08 04:41:11;;;;;;;4.57;1.30;;;;;;;13.11;100.00;103182.25;4999463;28;20443;-76
2023/10/08 04:43:42;;;;;;;2.90;0.90;;;;;;;13.09;100.00;103180.72;4995752;28;20494;-77
2023/10/08 04:46:19;;;;;;;4.77;1.50;;;;;;;12.92;100.00;103127.72;5000268;28;20684;-76
2023/10/08 04:48:49;;;;;;;6.77;1.70;;;;;;;12.77;100.00;103119.38;5000150;28;20484;-76
2023/10/08 04:51:17;;;;;;;4.23;1.10;;;;;;;12.73;100.00;103100.00;5000509;28;20439;-76
2023/10/08 04:53:44;;;;;;;6.20;1.40;;;;;;;12.92;100.00;103138.50;5000574;28;20941;-76
2023/10/08 04:56:18;;;;;;;4.77;1.40;;;;;;;13.24;100.00;103173.72;5001432;28;20443;-77
2023/10/08 04:58:48;;;;;;;6.43;1.33;;;;;;;13.36;100.00;103189.66;5000088;28;20439;-77
2023/10/08 05:01:17;;;;;;;5.20;1.47;;;;;;;12.63;100.00;103110.84;4997990;28;20444;-76
2023/10/08 05:14:34;;;;;;;4.77;1.33;;;;;;;12.38;100.00;103049.75;5001122;28;20527;-76
2023/10/08 05:28:09;;;;;;;5.80;1.20;;;;;;;12.68;100.00;103121.16;4997551;28;20618;-77
2023/10/08 05:30:41;;;;;;;5.20;1.50;;;;;;;12.69;100.00;103159.72;4999362;28;20445;-77
2023/10/08 05:38:38;;;;;;;4.67;1.50;;;;;;;12.82;100.00;103166.38;4998647;28;20476;-77
2023/10/08 05:52:11;;;;;;;6.03;1.40;;;;;;;12.99;100.00;103179.94;5000568;28;20448;-77
2023/10/08 06:02:29;;;;;;;4.60;1.30;;;;;;;12.84;100.00;103193.16;4998789;28;20837;-77
2023/10/08 06:05:22;;;;;;;5.37;1.57;;;;;;;12.70;100.00;103189.19;4999979;28;20555;-77
2023/10/08 06:10:56;;;;;;;5.07;1.23;;;;;;;12.98;100.00;103194.44;4999471;28;20861;-77
2023/10/08 06:13:16;;;;;;;4.80;1.57;;;;;;;12.82;100.00;103204.09;4996727;28;20456;-75
2023/10/08 06:18:29;;;;;;;5.23;1.57;;;;;;;12.88;100.00;103194.53;5000636;28;20452;-77
2023/10/08 06:21:08;;;;;;;3.93;1.10;;;;;;;12.76;100.00;103167.00;4998217;28;20448;-76
2023/10/08 06:23:36;;;;;;;6.60;2.00;;;;;;;13.06;100.00;103203.41;4999313;28;20471;-76
2023/10/08 06:26:13;;;;;;;4.23;1.27;;;;;;;12.84;100.00;103207.47;4981557;28;20466;-77
2023/10/08 06:28:41;;;;;;;5.10;1.53;;;;;;;12.76;100.00;103199.31;4997521;28;20501;-77
2023/10/08 06:31:11;;;;;;;5.17;1.20;;;;;;;12.16;100.00;103108.44;4998111;28;20432;-76
2023/10/08 06:33:38;;;;;;;3.43;1.10;;;;;;;12.68;100.00;103196.56;4997737;28;20546;-76
2023/10/08 06:36:15;;;;;;;5.63;1.30;;;;;;;12.76;100.00;103185.03;4987809;28;20527;-77
2023/10/08 06:38:44;;;;;;;4.50;1.27;;;;;;;12.46;100.00;103127.88;4989863;28;20499;-76
2023/10/08 06:43:38;;;;;;;7.07;1.20;;;;;;;12.25;100.00;103127.38;4999747;28;20467;-77
2023/10/08 06:46:07;;;;;;;4.47;1.30;;;;;;;12.26;100.00;103142.50;5000449;28;20455;-76
2023/10/08 06:48:34;;;;;;;4.37;1.27;;;;;;;12.51;100.00;103138.19;4996667;28;20479;-76
2023/10/08 06:51:07;;;;;;;4.97;1.40;;;;;;;12.32;100.00;103098.81;4998845;28;20792;-76
2023/10/08 06:53:33;;;;;;;4.77;1.03;;;;;;;12.88;100.00;103225.00;5001718;28;20904;-77
2023/10/08 06:56:04;;;;;;;4.33;1.20;;;;;;;12.31;100.00;103099.84;4998728;28;21130;-77
2023/10/08 06:58:32;;;;;;;4.43;1.23;;;;;;;12.29;100.00;103099.13;5000773;28;20443;-77
2023/10/08 07:00:58;;;;;;;5.23;1.30;;;;;;;13.05;100.00;103214.38;4997509;28;20447;-77
2023/10/08 07:03:24;;;;;;;4.40;1.30;;;;;;;13.18;100.00;103233.66;5001616;28;20476;-77
2023/10/08 07:05:54;;;;;;;6.63;1.40;;;;;;;13.04;100.00;103236.91;4999223;28;20455;-76
2023/10/08 07:08:23;;;;;;;6.30;1.87;;;;;;;13.45;100.00;103254.25;4969578;28;21159;-77
2023/10/08 07:10:49;;;;;;;6.30;1.83;;;;;;;12.98;100.00;103170.19;4960679;28;20496;-77
2023/10/08 07:13:17;;;;;;;5.30;1.63;;;;;;;13.40;100.00;103224.22;4958910;28;20545;-77
2023/10/08 07:15:44;;;;;;;7.43;2.00;;;;;;;13.54;100.00;103229.03;4958254;28;20419;-77
2023/10/08 07:18:12;;;;;;;4.57;1.60;;;;;;;12.82;100.00;103135.91;4958083;28;20447;-76
2023/10/08 07:20:41;;;;;;;6.90;1.70;;;;;;;13.51;100.00;103223.09;4962019;28;20437;-77
2023/10/08 07:23:18;;;;;;;3.90;1.30;;;;;;;12.84;100.00;103101.56;4944180;28;20478;-77
2023/10/08 07:25:51;;;;;;;5.60;1.20;;;;;;;13.24;100.00;103141.38;4954543;28;20487;-76
2023/10/08 07:28:19;;;;;;;5.17;1.40;;;;;;;13.77;100.00;103215.81;4948675;28;20572;-77
2023/10/08 07:30:45;;;;;;;5.53;1.60;;;;;;;13.39;100.00;103147.03;4959290;28;20445;-77
2023/10/08 07:33:17;;;;;;;4.87;1.30;;;;;;;13.71;100.00;103210.22;4963813;28;20451;-77
2023/10/08 07:35:57;;;;;;;5.90;1.40;;;;;;;13.88;100.00;103216.53;4960071;28;20439;-76
2023/10/08 07:38:27;;;;;;;8.43;1.70;;;;;;;13.85;100.00;103203.38;4957876;28;20488;-76
2023/10/08 07:40:55;;;;;;;5.83;1.30;;;;;;;13.88;100.00;103192.25;4956796;28;20458;-77
2023/10/08 07:43:20;;;;;;;5.63;1.20;;;;;;;13.72;100.00;103139.94;4960928;28;21195;-77
2023/10/08 07:45:46;;;;;;;5.37;1.27;;;;;;;13.90;100.00;103174.06;4955213;28;20460;-77
2023/10/08 07:48:13;;;;;;;4.97;1.20;;;;;;;13.47;100.00;103108.50;4959614;28;20665;-77
2023/10/08 07:50:45;;;;;;;4.80;1.57;;;;;;;13.30;100.00;103108.41;4958067;28;20955;-76
2023/10/08 07:53:17;;;;;;;5.13;1.37;;;;;;;13.17;100.00;103042.50;4960300;28;20469;-78
2023/10/08 07:55:46;;;;;;;6.23;1.50;;;;;;;13.71;100.00;103149.06;4957569;28;21011;-76
2023/10/08 07:58:11;;;;;;;5.50;1.40;;;;;;;13.68;100.00;103103.53;4956048;28;20473;-76
2023/10/08 08:00:39;;;;;;;4.77;1.20;;;;;;;13.88;100.00;103135.59;4955929;28;20485;-76
2023/10/08 08:03:04;;;;;;;4.10;1.20;;;;;;;13.81;100.00;103115.69;4956500;28;20601;-76
2023/10/08 08:05:30;;;;;;;7.63;1.30;;;;;;;13.47;100.00;103063.50;4954608;28;20457;-76
2023/10/08 08:07:58;;;;;;;5.90;1.50;;;;;;;13.39;100.00;103055.38;4954810;28;20446;-76
2023/10/08 08:10:24;;;;;;;4.00;1.10;;;;;;;14.01;100.00;103103.59;4956128;28;20698;-76
2023/10/08 08:12:54;;;;;;;4.97;1.20;;;;;;;14.15;100.00;103124.53;4954720;28;20454;-76
2023/10/08 08:15:20;;;;;;;7.70;1.87;;;;;;;14.15;100.00;103092.16;4957612;28;20194;-76
2023/10/08 08:17:48;;;;;;;5.70;1.40;;;;;;;13.70;100.00;103003.56;4944168;28;20441;-76
2023/10/08 08:20:19;;;;;;;5.07;1.30;;;;;;;13.97;100.00;103035.63;4944119;28;20187;-77
2023/10/08 08:22:54;;;;;;;3.57;1.00;;;;;;;14.01;100.00;103050.47;4961723;28;20961;-76
2023/10/08 08:25:36;;;;;;;8.73;1.73;;;;;;;14.34;100.00;103071.22;4960701;28;20429;-76
2023/10/08 08:28:06;;;;;;;4.87;0.90;;;;;;;14.23;100.00;102977.91;4944434;28;20870;-76
2023/10/08 08:30:33;;;;;;;4.23;1.40;;;;;;;14.39;100.00;102980.59;4958104;28;20984;-76
2023/10/08 08:33:00;;;;;;;5.70;1.43;;;;;;;14.43;100.00;103021.59;4958015;28;20469;-76
2023/10/08 08:35:26;;;;;;;7.70;1.20;;;;;;;14.33;100.00;103018.25;4959204;28;21481;-76
2023/10/08 08:37:51;;;;;;;3.73;1.23;;;;;;;14.55;100.00;103014.88;4959652;28;20962;-76
2023/10/08 08:40:24;;;;;;;4.10;0.97;;;;;;;14.73;100.00;103033.56;4956543;28;20446;-76
2023/10/08 08:42:52;;;;;;;5.27;1.50;;;;;;;14.32;100.00;102949.06;4942030;28;20233;-75
2023/10/08 08:45:22;;;;;;;6.73;1.33;;;;;;;14.23;100.00;102900.50;4960190;28;20450;-76
2023/10/08 08:47:48;;;;;;;4.37;1.07;;;;;;;14.12;100.00;102865.78;4962764;28;20529;-76
2023/10/08 08:50:13;;;;;;;5.53;1.60;;;;;;;14.21;100.00;102880.94;4961347;28;20453;-76
2023/10/08 08:52:40;;;;;;;5.00;1.20;;;;;;;14.82;100.00;103048.72;4962097;28;20454;-76
2023/10/08 08:55:14;;;;;;;6.00;1.60;;;;;;;14.91;100.00;103046.84;4956324;28;20195;-76
2023/10/08 08:57:43;;;;;;;4.30;1.30;;;;;;;14.95;100.00;103023.84;4959164;28;20437;-76
2023/10/08 09:00:11;;;;;;;8.73;1.80;;;;;;;14.66;100.00;102965.03;4961645;28;20449;-76
2023/10/08 09:02:39;;;;;;;3.50;0.93;;;;;;;14.84;100.00;102924.25;4960973;28;21037;-76
2023/10/08 09:05:13;;;;;;;5.53;1.67;;;;;;;14.44;100.00;102872.09;4961679;28;20461;-76
2023/10/08 09:08:11;;;;;;;5.30;1.07;;;;;;;14.84;100.00;102972.88;4951691;28;20539;-76
2023/10/08 09:10:50;;;;;;;5.43;1.30;;;;;;;14.66;100.00;102927.22;4936247;28;20962;-75
2023/10/08 09:13:23;;;;;;;4.50;1.27;;;;;;;14.13;100.00;102789.22;4961695;28;20540;-76
2023/10/08 09:15:52;;;;;;;4.97;1.50;;;;;;;14.99;100.00;102922.50;4958323;28;20453;-76
2023/10/08 09:18:17;;;;;;;3.63;1.17;;;;;;;14.69;100.00;102949.34;4960089;28;20841;-76
2023/10/08 09:20:43;;;;;;;7.87;1.30;;;;;;;14.86;100.00;102906.03;4957144;28;20457;-76
2023/10/08 09:23:13;;;;;;;5.53;1.73;;;;;;;14.57;100.00;102821.09;4960098;28;20215;-76
2023/10/08 09:25:49;;;;;;;4.47;1.50;;;;;;;14.48;100.00;102863.44;4960623;28;20187;-76
2023/10/08 09:28:16;;;;;;;4.50;1.43;;;;;;;14.73;100.00;102893.09;4960444;28;20463;-76
2023/10/08 09:30:44;;;;;;;3.97;1.00;;;;;;;13.70;100.00;102710.44;4944972;28;20450;-76
2023/10/08 09:33:14;;;;;;;4.97;1.03;;;;;;;14.70;100.00;102866.44;4958308;28;20489;-75
2023/10/08 09:35:39;;;;;;;5.80;1.20;;;;;;;14.83;100.00;102877.50;4957410;28;20509;-76
2023/10/08 09:38:15;;;;;;;8.53;1.10;;;;;;;14.90;100.00;102894.69;4959772;28;20770;-76
2023/10/08 09:40:41;;;;;;;5.00;1.60;;;;;;;14.88;100.00;102887.78;4960471;28;20190;-76
2023/10/08 09:43:10;;;;;;;7.03;1.83;;;;;;;14.25;100.00;102789.66;4960195;28;20473;-76
2023/10/08 09:45:38;;;;;;;4.10;1.30;;;;;;;14.74;100.00;102850.72;4955784;28;20442;-76
2023/10/08 09:48:11;;;;;;;4.37;1.40;;;;;;;14.92;100.00;102845.88;4955549;28;20570;-76
2023/10/08 09:50:40;;;;;;;6.27;1.33;;;;;;;14.76;100.00;102808.16;4952073;28;20963;-76
2023/10/08 09:53:22;;;;;;;4.97;1.40;;;;;;;14.96;100.00;102770.72;4961733;28;22580;-76
2023/10/08 09:55:57;;;;;;;4.47;1.30;;;;;;;13.77;100.00;102575.78;4961486;28;20441;-76
2023/10/08 09:58:27;;;;;;;4.23;1.20;;;;;;;14.74;100.00;102704.84;4962596;28;20453;-76
2023/10/08 10:00:57;;;;;;;4.70;1.30;;;;;;;14.96;100.00;102768.84;4960350;28;20492;-76
2023/10/08 10:03:25;;;;;;;4.60;1.13;;;;;;;14.80;100.00;102777.06;4960182;28;20469;-76
2023/10/08 10:05:51;;;;;;;6.60;1.20;;;;;;;14.89;100.00;102754.34;4945752;28;20457;-76
2023/10/08 10:08:17;;;;;;;6.67;1.43;;;;;;;14.98;100.00;102757.84;4959406;28;20565;-76
2023/10/08 10:10:47;;;;;;;4.43;1.00;;;;;;;14.89;100.00;102703.03;4961522;28;20438;-76
2023/10/08 10:13:16;;;;;;;4.60;1.10;;;;;;;15.28;100.00;102697.44;4961911;28;20293;-74
2023/10/08 10:15:44;;;;;;;4.33;1.23;;;;;;;15.34;100.00;102703.97;4957842;28;20450;-76
2023/10/08 10:18:25;;;;;;;4.47;1.03;;;;;;;15.24;100.00;102681.75;4960324;28;20451;-76
2023/10/08 10:20:55;;;;;;;5.73;1.43;;;;;;;15.13;100.00;102635.25;4959457;28;20943;-76
2023/10/08 10:23:42;;;;;;;5.40;1.30;;;;;;;15.26;100.00;102690.53;4959368;28;20510;-76
2023/10/08 10:26:31;;;;;;;4.53;1.30;;;;;;;15.21;100.00;102707.28;4959393;28;20985;-76
2023/10/08 10:29:14;;;;;;;5.33;1.63;;;;;;;15.37;100.00;102688.22;4959761;28;20419;-76
2023/10/08 10:31:47;;;;;;;3.83;1.13;;;;;;;15.47;100.00;102669.00;4944195;28;20997;-76
2023/10/08 10:34:34;;;;;;;5.37;1.43;;;;;;;15.43;100.00;102659.59;4959140;28;20526;-76
2023/10/08 10:37:18;;;;;;;4.93;1.00;;;;;;;15.09;100.00;102579.88;4957263;28;20438;-74
2023/10/08 10:39:52;;;;;;;4.53;1.10;;;;;;;14.89;100.00;102555.25;4941771;28;20504;-74
2023/10/08 10:42:22;;;;;;;3.50;0.93;;;;;;;14.88;100.00;102510.38;4957934;28;20458;-74
2023/10/08 10:44:49;;;;;;;5.73;1.30;;;;;;;15.36;100.00;102613.53;4960521;28;20458;-74
2023/10/08 10:52:32;;;;;;;5.83;1.23;;;;;;;15.46;100.00;102509.66;4961415;28;20465;-74
2023/10/08 10:57:54;;;;;;;3.90;1.03;;;;;;;16.23;100.00;102539.59;4960949;28;20438;-74
2023/10/08 11:03:09;;;;;;;5.90;1.20;;;;;;;16.36;100.00;102563.22;4960849;28;20633;-74
2023/10/08 11:05:39;;;;;;;4.97;1.00;;;;;;;16.57;100.00;102496.50;4961683;28;20918;-74
2023/10/08 11:08:06;;;;;;;4.40;0.90;;;;;;;15.97;100.00;102360.75;4961566;28;20458;-74
2023/10/08 11:10:39;;;;;;;3.33;0.90;;;;;;;16.99;100.00;102669.03;4957336;28;20970;-74
2023/10/08 11:13:14;;;;;;;3.80;0.97;;;;;;;17.09;100.00;102777.94;4940033;28;20937;-75
2023/10/08 11:15:48;;;;;;;4.80;0.97;;;;;;;16.33;100.00;102620.50;4959166;28;20939;-74
2023/10/08 11:18:17;;;;;;;4.63;1.13;;;;;;;15.95;100.00;102623.44;4957454;28;20414;-74
2023/10/08 11:20:44;;;;;;;3.60;1.00;;;;;;;16.50;100.00;102692.34;4957335;28;20568;-74
2023/10/08 11:23:35;;;;;;;3.13;0.87;;;;;;;16.56;100.00;102688.00;4956116;28;20523;-74
2023/10/08 11:26:02;;;;;;;5.23;1.07;;;;;;;16.64;100.00;102703.31;4942221;28;20466;-74
2023/10/08 11:28:35;;;;;;;4.40;1.13;;;;;;;16.20;100.00;102697.03;4954875;28;20554;-74
2023/10/08 11:31:08;;;;;;;6.57;1.37;;;;;;;16.43;100.00;102709.53;4960894;28;20488;-74
2023/10/08 11:33:55;;;;;;;4.03;1.13;;;;;;;16.01;100.00;102720.09;4948031;28;20453;-73
2023/10/08 11:36:27;;;;;;;4.40;1.00;;;;;;;15.51;100.00;102634.31;4942752;28;20886;-74
2023/10/08 11:39:00;;;;;;;6.87;1.00;;;;;;;15.93;100.00;102679.59;4943348;28;20442;-74
2023/10/08 11:41:27;;;;;;;5.00;1.00;;;;;;;15.88;100.00;102722.66;4958295;28;20919;-74
2023/10/08 11:43:58;;;;;;;2.93;0.70;;;;;;;15.81;100.00;102683.84;4959076;28;20973;-74
2023/10/08 11:46:38;;;;;;;3.53;0.90;;;;;;;15.68;100.00;102726.94;4959662;28;20450;-74
2023/10/08 11:49:07;;;;;;;3.73;0.97;;;;;;;15.44;100.00;102663.94;4958362;28;20444;-74
2023/10/08 11:51:36;;;;;;;4.17;1.10;;;;;;;15.78;100.00;102749.16;4965185;28;20494;-74
2023/10/08 11:54:02;;;;;;;4.30;0.93;;;;;;;15.09;100.00;102684.44;4960969;28;20481;-74
2023/10/08 11:56:32;;;;;;;3.87;0.97;;;;;;;15.85;100.00;102681.59;4945454;28;20429;-74
2023/10/08 11:58:58;;;;;;;4.93;1.07;;;;;;;15.77;100.00;102652.78;4961460;28;20442;-75
2023/10/08 12:01:24;;;;;;;4.23;1.00;;;;;;;16.26;100.00;102733.31;4962854;28;20492;-74
2023/10/08 12:03:50;;;;;;;3.80;1.03;;;;;;;15.73;100.00;102697.47;4963327;28;20211;-74
2023/10/08 12:06:18;;;;;;;4.10;0.80;;;;;;;15.40;100.00;102619.41;4947570;28;20453;-74
2023/10/08 12:08:53;;;;;;;6.27;1.10;;;;;;;15.39;100.00;102674.50;4965530;28;20798;-74
2023/10/08 12:11:19;;;;;;;4.13;1.10;;;;;;;15.18;100.00;102688.72;4962142;28;20533;-74
2023/10/08 12:13:45;;;;;;;4.23;1.10;;;;;;;15.57;100.00;102731.75;4960190;28;20469;-74
2023/10/08 12:18:58;;;;;;;5.73;1.20;;;;;;;15.69;100.00;102642.91;4962231;28;20675;-74
2023/10/08 12:21:25;;;;;;;6.07;1.20;;;;;;;15.90;100.00;102668.34;4962353;28;20441;-74
2023/10/08 12:23:51;;;;;;;3.70;1.23;;;;;;;16.48;100.00;102699.81;4944034;28;20214;-74
2023/10/08 12:26:18;;;;;;;4.40;1.13;;;;;;;15.80;100.00;102606.41;4963873;28;20454;-74
2023/10/08 12:28:45;;;;;;;8.13;1.20;;;;;;;16.02;100.00;102605.38;4965143;28;20821;-74
2023/10/08 12:31:12;;;;;;;4.00;1.17;;;;;;;17.15;100.00;102701.28;4960808;28;20935;-74
2023/10/08 12:33:38;;;;;;;4.50;0.80;;;;;;;16.68;100.00;102644.97;4957416;28;20449;-74
2023/10/08 12:36:12;;;;;;;4.50;1.10;;;;;;;16.66;100.00;102675.00;4961221;28;20434;-74
2023/10/08 12:38:44;;;;;;;6.30;1.50;;;;;;;16.77;100.00;102708.03;4961399;28;20197;-74
2023/10/08 12:41:13;;;;;;;3.83;1.60;;;;;;;16.51;100.00;102714.84;4963015;28;20442;-74
2023/10/08 12:43:42;;;;;;;4.13;1.20;;;;;;;16.78;100.00;102705.16;4963735;28;20488;-74
2023/10/08 12:46:15;;;;;;;3.60;1.00;;;;;;;16.76;100.00;102663.84;4960972;28;20430;-74